createdAt,value
2019-03-29T00:24:26.729Z,102329.30
2019-03-29T00:26:57.039Z,102322.00
2019-03-29T00:29:27.395Z,102328.02
2019-03-29T00:31:57.739Z,102330.11
2019-03-29T00:34:28.177Z,102328.36
2019-03-29T00:36:58.608Z,102329.72
2019-03-29T00:39:29.141Z,102325.41
2019-03-29T00:41:59.359Z,102324.96
2019-03-29T00:44:29.793Z,102320.67
2019-03-29T00:46:59.946Z,102319.83
2019-03-29T00:49:30.387Z,102320.66
2019-03-29T00:52:00.664Z,102292.82
2019-03-29T00:54:31.002Z,102318.76
2019-03-29T00:57:01.357Z,102319.61
2019-03-29T00:59:31.756Z,102319.55
2019-03-29T01:02:01.974Z,102325.55
2019-03-29T01:04:32.362Z,102324.48
2019-03-29T01:07:02.595Z,102322.37
2019-03-29T01:09:33.053Z,102317.31
2019-03-29T01:12:03.325Z,102308.40
2019-03-29T01:14:33.702Z,102312.27
2019-03-29T01:17:03.876Z,102304.56
2019-03-29T01:19:34.435Z,102300.75
2019-03-29T01:22:05.268Z,102304.61
2019-03-29T02:24:50.499Z,102311.01
2019-03-29T02:27:20.839Z,102307.17
2019-03-29T02:29:51.289Z,102306.72
2019-03-29T02:32:21.722Z,102298.60
2019-03-29T02:34:52.164Z,102294.77
2019-03-29T02:37:22.354Z,102291.37
2019-03-29T02:39:54.708Z,102283.64
2019-03-29T02:42:24.896Z,102284.04
2019-03-29T02:44:55.189Z,102287.05
2019-03-29T02:47:25.425Z,102288.30
2019-03-29T02:49:55.850Z,102289.52
2019-03-29T02:52:26.491Z,102285.62
2019-03-29T02:54:56.868Z,102290.41
2019-03-29T02:57:28.415Z,102290.41
2019-03-29T02:59:58.792Z,102290.90
2019-03-29T03:02:29.235Z,102291.70
2019-03-29T03:04:59.444Z,102297.21
2019-03-29T03:07:29.763Z,102289.60
2019-03-29T03:10:00.042Z,102288.78
2019-03-29T03:12:30.540Z,102281.95
2019-03-29T03:15:01.048Z,102293.09
2019-03-29T03:17:31.206Z,102291.77
2019-03-29T03:20:01.660Z,102298.65
2019-03-29T03:22:32.005Z,102296.52
2019-03-29T04:25:41.002Z,102322.06
2019-03-29T04:28:11.382Z,102329.68
2019-03-29T04:30:41.659Z,102334.36
2019-03-29T04:33:11.994Z,102330.75
2019-03-29T04:35:42.486Z,102327.66
2019-03-29T04:38:13.160Z,102334.97
2019-03-29T04:40:43.589Z,102331.44
2019-03-29T04:43:13.767Z,102333.16
2019-03-29T04:45:44.139Z,102329.80
2019-03-29T04:48:14.478Z,102325.16
2019-03-29T04:50:44.808Z,102328.94
2019-03-29T04:53:15.403Z,102323.77
2019-03-29T04:55:45.703Z,102319.16
2019-03-29T04:58:16.109Z,102319.62
2019-03-29T05:00:46.604Z,102326.87
2019-03-29T05:03:18.369Z,102318.09
2019-03-29T05:05:48.492Z,102327.94
2019-03-29T05:08:18.807Z,102328.26
2019-03-29T05:14:29.933Z,102333.28
2019-03-29T05:17:00.354Z,102333.22
2019-03-29T05:19:30.443Z,102332.93
2019-03-29T05:22:00.728Z,102333.70
2019-03-29T06:25:48.700Z,102319.01
2019-03-29T06:28:20.377Z,102323.33
2019-03-29T06:30:50.783Z,102313.86
2019-03-29T06:33:22.547Z,102318.48
2019-03-29T06:35:54.895Z,102324.52
2019-03-29T06:38:28.109Z,102325.90
2019-03-29T06:41:03.100Z,102324.84
2019-03-29T06:43:31.827Z,102320.56
2019-03-29T06:46:02.092Z,102321.32
2019-03-29T06:48:32.480Z,102328.13
2019-03-29T06:51:02.632Z,102324.49
2019-03-29T06:53:32.887Z,102325.78
2019-03-29T06:56:03.199Z,102325.69
2019-03-29T06:58:33.419Z,102325.43
2019-03-29T07:01:03.810Z,102317.30
2019-03-29T07:03:34.035Z,102318.16
2019-03-29T07:06:04.497Z,102318.03
2019-03-29T07:08:34.982Z,102322.36
2019-03-29T07:11:16.526Z,102323.33
2019-03-29T07:13:37.377Z,102322.95
2019-03-29T07:16:07.909Z,102329.44
2019-03-29T07:18:38.206Z,102329.84
2019-03-29T07:21:20.748Z,102324.86
2019-03-29T08:24:17.650Z,102321.66
2019-03-29T08:26:47.974Z,102309.28
2019-03-29T08:29:18.309Z,102312.69
2019-03-29T08:31:48.564Z,102309.76
2019-03-29T08:34:20.205Z,102308.70
2019-03-29T08:36:50.510Z,102310.91
2019-03-29T08:39:27.956Z,102307.39
2019-03-29T08:41:59.889Z,102306.80
2019-03-29T08:44:24.799Z,102308.30
2019-03-29T08:46:55.088Z,102310.03
2019-03-29T08:49:25.574Z,102308.69
2019-03-29T08:51:56.063Z,102302.73
2019-03-29T08:54:26.418Z,102299.52
2019-03-29T08:56:56.915Z,102301.62
2019-03-29T08:59:27.145Z,102306.00
2019-03-29T09:01:57.793Z,102304.03
2019-03-29T09:04:28.135Z,102300.74
2019-03-29T09:06:58.634Z,102298.80
2019-03-29T09:09:29.862Z,102286.46
2019-03-29T09:12:13.344Z,102300.79
2019-03-29T09:14:31.911Z,102297.42
2019-03-29T09:17:02.337Z,102293.84
2019-03-29T09:19:32.486Z,102290.73
2019-03-29T09:22:02.721Z,102285.83
2019-03-29T10:24:23.540Z,102268.42
2019-03-29T10:26:53.946Z,102266.61
2019-03-29T10:29:24.323Z,102262.48
2019-03-29T10:31:54.879Z,102251.98
2019-03-29T10:34:25.273Z,102262.80
2019-03-29T10:36:55.621Z,102260.59
2019-03-29T10:39:26.452Z,102261.57
2019-03-29T10:41:56.937Z,102266.70
2019-03-29T10:44:27.319Z,102261.57
2019-03-29T10:46:57.907Z,102264.50
2019-03-29T10:49:28.134Z,102266.89
2019-03-29T10:51:58.506Z,102264.30
2019-03-29T10:54:29.039Z,102265.73
2019-03-29T10:56:59.571Z,102261.52
2019-03-29T10:59:30.044Z,102256.89
2019-03-29T11:02:00.530Z,102257.38
2019-03-29T11:04:32.027Z,102253.42
2019-03-29T11:07:02.928Z,102254.84
2019-03-29T11:09:33.191Z,102247.35
2019-03-29T11:12:05.171Z,102247.64
2019-03-29T11:14:35.487Z,102246.23
2019-03-29T11:17:06.036Z,102243.98
2019-03-29T11:19:36.346Z,102243.91
2019-03-29T11:22:06.708Z,102237.28
2019-03-29T11:28:11.686Z,102233.27
2019-03-29T11:30:43.214Z,102231.34
2019-03-29T11:33:13.559Z,102224.05
2019-03-29T11:35:45.514Z,102227.33
2019-03-29T11:38:15.866Z,102217.70
2019-03-29T11:40:46.120Z,102215.78
2019-03-29T11:43:26.439Z,102202.16
2019-03-29T11:45:48.634Z,102216.53
2019-03-29T11:48:19.009Z,102207.82
2019-03-29T11:50:49.647Z,102210.96
2019-03-29T11:53:19.968Z,102209.95
2019-03-29T11:55:50.219Z,102188.20
2019-03-29T11:58:20.529Z,102187.09
2019-03-29T12:00:50.955Z,102186.66
2019-03-29T12:03:21.191Z,102192.22
2019-03-29T12:05:51.617Z,102197.38
2019-03-29T12:11:38.855Z,102185.81
2019-03-29T12:14:10.420Z,102175.43
2019-03-29T12:16:40.831Z,102171.76
2019-03-29T12:19:11.175Z,102169.85
2019-03-29T12:21:41.377Z,102173.66
2019-03-29T12:24:11.649Z,102172.26
2019-03-29T12:26:41.968Z,102170.20
2019-03-29T12:29:12.189Z,102171.88
2019-03-29T12:31:42.585Z,102171.76
2019-03-29T12:34:13.019Z,102162.86
2019-03-29T12:36:45.927Z,102159.81
2019-03-29T12:39:15.405Z,102152.13
2019-03-29T12:41:45.633Z,102157.52
2019-03-29T12:44:16.151Z,102152.73
2019-03-29T12:46:46.591Z,102151.30
2019-03-29T12:49:16.921Z,102149.02
2019-03-29T12:51:48.567Z,102146.50
2019-03-29T12:54:19.014Z,102154.02
2019-03-29T12:56:49.373Z,102146.75
2019-03-29T12:59:19.802Z,102153.45
2019-03-29T13:01:50.082Z,102148.99
2019-03-29T13:04:20.360Z,102144.89
2019-03-29T13:06:51.979Z,102146.17
2019-03-29T13:09:22.286Z,102147.15
2019-03-29T13:11:52.609Z,102138.53
2019-03-29T13:14:22.938Z,102141.72
2019-03-29T13:16:53.271Z,102140.27
2019-03-29T13:19:23.715Z,102141.00
2019-03-29T13:21:53.939Z,102139.64
2019-03-29T14:25:11.694Z,102097.17
2019-03-29T14:27:41.987Z,102112.20
2019-03-29T14:30:12.944Z,102092.55
2019-03-29T14:32:43.313Z,102100.27
2019-03-29T14:35:13.938Z,102102.73
2019-03-29T14:37:44.334Z,102101.34
2019-03-29T14:40:14.754Z,102097.50
2019-03-29T14:42:45.100Z,102099.33
2019-03-29T14:45:15.606Z,102091.16
2019-03-29T14:47:46.336Z,102087.77
2019-03-29T14:50:16.770Z,102080.97
2019-03-29T14:52:47.046Z,102096.25
2019-03-29T14:55:17.378Z,102092.11
2019-03-29T14:57:48.969Z,102088.63
2019-03-29T15:00:23.959Z,102102.65
2019-03-29T15:02:54.276Z,102087.45
2019-03-29T15:05:24.625Z,102095.17
2019-03-29T15:07:54.981Z,102090.56
2019-03-29T15:10:28.175Z,102103.22
2019-03-29T15:12:58.500Z,102107.27
2019-03-29T15:15:28.871Z,102113.41
2019-03-29T15:17:59.419Z,102112.33
2019-03-29T15:20:29.853Z,102118.51
2019-03-29T15:23:00.325Z,102111.28
2019-03-29T16:23:59.131Z,102106.88
2019-03-29T16:26:29.634Z,102101.06
2019-03-29T16:28:59.879Z,102104.76
2019-03-29T16:31:30.145Z,102102.02
2019-03-29T16:34:00.667Z,102104.13
2019-03-29T16:36:31.083Z,102108.74
2019-03-29T16:39:01.484Z,102106.41
2019-03-29T16:41:31.703Z,102115.14
2019-03-29T16:44:03.483Z,102109.18
2019-03-29T16:46:34.095Z,102119.00
2019-03-29T16:49:04.736Z,102106.70
2019-03-29T16:51:34.988Z,102108.63
2019-03-29T16:54:05.885Z,102111.41
2019-03-29T16:56:36.190Z,102112.41
2019-03-29T16:59:06.603Z,102110.91
2019-03-29T17:01:38.223Z,102108.44
2019-03-29T17:04:08.532Z,102108.12
2019-03-29T17:06:38.818Z,102104.67
2019-03-29T17:09:09.138Z,102113.04
2019-03-29T17:11:40.741Z,102117.33
2019-03-29T17:14:10.861Z,102115.70
2019-03-29T17:16:42.279Z,102122.72
2019-03-29T17:19:13.734Z,102118.37
2019-03-29T17:21:44.042Z,102119.80
2019-03-29T18:23:58.136Z,102143.22
2019-03-29T18:26:28.406Z,102144.13
2019-03-29T18:28:58.535Z,102142.75
2019-03-29T18:31:28.991Z,102149.22
2019-03-29T18:33:59.509Z,102140.27
2019-03-29T18:36:30.090Z,102142.48
2019-03-29T18:39:00.702Z,102148.94
2019-03-29T18:41:30.999Z,102150.16
2019-03-29T18:44:01.361Z,102142.63
2019-03-29T18:46:44.016Z,102142.80
2019-03-29T18:49:03.548Z,102141.50
2019-03-29T18:51:33.771Z,102137.23
2019-03-29T18:54:04.066Z,102147.15
2019-03-29T18:56:34.688Z,102143.42
2019-03-29T18:59:04.873Z,102141.80
2019-03-29T19:01:35.241Z,102140.88
2019-03-29T19:04:06.020Z,102145.67
2019-03-29T19:06:36.276Z,102146.18
2019-03-29T19:09:08.995Z,102149.34
2019-03-29T19:11:39.384Z,102146.17
2019-03-29T19:14:09.633Z,102151.81
2019-03-29T19:16:41.510Z,102149.44
2019-03-29T19:19:11.812Z,102156.29
2019-03-29T19:21:42.152Z,102154.65
2019-03-29T20:23:30.438Z,102182.20
2019-03-29T20:26:00.903Z,102173.21
2019-03-29T20:28:31.146Z,102165.55
2019-03-29T20:31:01.704Z,102171.16
2019-03-29T20:33:32.203Z,102170.69
2019-03-29T20:36:03.012Z,102177.58
2019-03-29T20:38:33.103Z,102178.44
2019-03-29T20:41:03.555Z,102176.69
2019-03-29T20:43:34.735Z,102186.48
2019-03-29T20:46:05.168Z,102188.20
2019-03-29T20:48:36.638Z,102185.20
2019-03-29T20:51:07.300Z,102191.62
2019-03-29T20:53:37.518Z,102193.00
2019-03-29T20:56:07.966Z,102195.95
2019-03-29T20:58:38.371Z,102194.53
2019-03-29T21:01:08.883Z,102193.72
2019-03-29T21:03:39.204Z,102203.44
2019-03-29T21:06:11.010Z,102194.91
2019-03-29T21:08:41.157Z,102196.95
2019-03-29T21:11:11.759Z,102196.14
2019-03-29T21:13:42.035Z,102189.81
2019-03-29T21:16:12.473Z,102183.87
2019-03-29T21:18:43.934Z,102183.50
2019-03-29T21:21:14.504Z,102194.25
2019-03-29T22:07:20.133Z,102171.12
2019-03-29T22:09:50.399Z,102175.43
2019-03-29T22:12:20.673Z,102171.08
2019-03-29T22:14:51.115Z,102163.81
2019-03-29T22:17:21.459Z,102166.84
2019-03-29T22:19:51.758Z,102162.99
2019-03-29T22:22:22.081Z,102161.28
2019-03-29T22:24:52.463Z,102159.92
2019-03-29T22:27:22.896Z,102158.71
2019-03-29T22:29:53.333Z,102150.72
2019-03-29T22:32:23.798Z,102150.72
2019-03-29T22:34:54.282Z,102154.14
2019-03-29T22:37:24.709Z,102140.84
2019-03-29T22:39:55.012Z,102139.63
2019-03-29T22:42:25.248Z,102148.25
2019-03-29T22:44:55.488Z,102139.73
2019-03-29T22:47:25.730Z,102136.67
2019-03-29T22:49:56.237Z,102135.55
2019-03-29T22:52:26.604Z,102128.70
2019-03-29T22:54:57.003Z,102122.29
2019-03-29T22:57:27.325Z,102123.12
2019-03-29T22:59:57.591Z,102116.28
2019-03-29T23:02:27.904Z,102117.06
2019-03-29T23:04:58.299Z,102109.80
2019-03-29T23:07:28.778Z,102114.90
2019-03-29T23:09:59.205Z,102116.67
2019-03-29T23:12:29.383Z,102110.26
2019-03-29T23:15:00.392Z,102108.70
2019-03-29T23:17:30.692Z,102109.16
2019-03-29T23:20:00.976Z,102107.48
2019-03-29T23:22:31.287Z,102107.42
